»·PEaware :: UAL1221 KSNA-KLAS

UAL1221 :: KSNA-KLAS

FLIGHT INFORMATION

Flight Status: Arrived
Operator:
United Airlines
More flights by this operator :: More flights under this callsign
Pilot: Manny R. (10936)
Aircraft: BOEING 737-800
(B738)
More flights by this aircraft type
Origin: KSNA John Wayne-Orange Co
United States
Destination: KLAS McCarran Intl
United States
More flights between these airports :: More routes between these airports
Route: FINZZ2 MISEN KEPEC6
File this flight plan on PilotEdge
Remarks:
Altitude:
(Current/Filed)
29,000ft
Speed:
(Current/Filed)
465kts
Departed: 13-Apr-18 11:00 PM
Arrived: 14-Apr-18 12:00 AM
Distance/Time
Traveled:
196nm/1:00
Distance/Time
To Go:
Arrived

Flight Plot

Page will automatically refresh every two minutes.

Flight plan parsing failed; only flown route is shown


Map Options




Map Legend


Flown Route
Filed Route
Departure Airport
Arrival Airport
Navaid (VOR, NDB)
Fix

Horizontal Profiles

Position Reports

Time Latitude Longitude Heading Altitude Ground
Speed
13-Apr-18 22:39 33.679006 -117.862573 117 64ft 0kts
13-Apr-18 22:40 33.679006 -117.862573 117 64ft 0kts
13-Apr-18 22:41 33.679006 -117.862573 117 64ft 0kts
13-Apr-18 22:42 33.679006 -117.862573 117 64ft 0kts
13-Apr-18 22:43 33.679006 -117.862573 117 64ft 0kts
13-Apr-18 22:44 33.679006 -117.862573 117 64ft 0kts
13-Apr-18 22:45 33.679006 -117.862573 117 64ft 0kts
13-Apr-18 22:46 33.679006 -117.862573 117 64ft 0kts
13-Apr-18 22:47 33.679006 -117.862573 117 64ft 0kts
13-Apr-18 22:48 33.679006 -117.862573 117 64ft 0kts
13-Apr-18 22:49 33.679020 -117.862606 118 64ft 1kts
13-Apr-18 22:50 33.679135 -117.862956 90 64ft 2kts
13-Apr-18 22:51 33.678990 -117.863362 39 64ft 2kts
13-Apr-18 22:52 33.678859 -117.863455 25 64ft 0kts
13-Apr-18 22:53 33.678859 -117.863455 25 64ft 0kts
13-Apr-18 22:54 33.678859 -117.863455 25 64ft 0kts
13-Apr-18 22:55 33.678859 -117.863455 25 64ft 0kts
13-Apr-18 22:56 33.679674 -117.862933 28 64ft 15kts
13-Apr-18 22:57 33.680535 -117.862921 314 64ft 0kts
13-Apr-18 22:58 33.681209 -117.864576 274 64ft 23kts
13-Apr-18 22:59 33.673021 -117.870521 207 64ft 133kts
13-Apr-18 23:00 33.646855 -117.887300 206 1736ft 158kts
13-Apr-18 23:01 33.609047 -117.895450 186 2906ft 215kts
13-Apr-18 23:02 33.560745 -117.910947 219 4241ft 264kts
13-Apr-18 23:03 33.515522 -117.961101 223 7011ft 276kts
13-Apr-18 23:04 33.501504 -118.025656 303 9444ft 286kts
13-Apr-18 23:05 33.546216 -118.086255 313 11313ft 318kts
13-Apr-18 23:06 33.612339 -118.116916 16 13749ft 331kts
13-Apr-18 23:07 33.684260 -118.076714 26 16275ft 344kts
13-Apr-18 23:08 33.754501 -118.035166 26 18512ft 356kts
13-Apr-18 23:09 33.819260 -117.997039 26 20375ft 366kts
13-Apr-18 23:10 33.889045 -117.956003 25 22193ft 377kts
13-Apr-18 23:11 33.963235 -117.897318 38 24054ft 387kts
13-Apr-18 23:12 34.041874 -117.823300 37 25918ft 399kts
13-Apr-18 23:13 34.112480 -117.753492 50 27419ft 409kts
13-Apr-18 23:14 34.170820 -117.661282 51 28889ft 417kts
13-Apr-18 23:15 34.236564 -117.561726 50 29010ft 446kts
13-Apr-18 23:16 34.303054 -117.461884 50 29001ft 462kts
13-Apr-18 23:17 34.375933 -117.352474 50 29000ft 463kts
13-Apr-18 23:18 34.437324 -117.260176 51 29000ft 463kts
13-Apr-18 23:19 34.503656 -117.160248 51 29000ft 463kts
13-Apr-18 23:20 34.569514 -117.062011 50 29000ft 463kts
13-Apr-18 23:21 34.644284 -116.952951 50 29000ft 463kts
13-Apr-18 23:22 34.716081 -116.847971 50 29000ft 463kts
13-Apr-18 23:23 34.786695 -116.744420 50 29000ft 463kts
13-Apr-18 23:24 34.862890 -116.634882 42 28984ft 462kts
13-Apr-18 23:25 34.953815 -116.546220 38 27781ft 442kts
13-Apr-18 23:26 35.039201 -116.463804 38 25550ft 418kts
13-Apr-18 23:27 35.108867 -116.395239 42 23904ft 395kts
13-Apr-18 23:28 35.159022 -116.333226 45 22900ft 393kts
13-Apr-18 23:29 35.217371 -116.260105 45 21778ft 384kts
13-Apr-18 23:30 35.283184 -116.177416 45 20518ft 377kts
13-Apr-18 23:31 35.349481 -116.093911 45 19248ft 370kts
13-Apr-18 23:32 35.410091 -116.017385 45 18085ft 363kts
13-Apr-18 23:33 35.473050 -115.937707 45 16877ft 357kts
13-Apr-18 23:34 35.535530 -115.858447 45 15677ft 351kts
13-Apr-18 23:35 35.591996 -115.786653 45 14537ft 347kts
13-Apr-18 23:36 35.652387 -115.709698 45 13111ft 324kts
13-Apr-18 23:37 35.702646 -115.645521 45 12677ft 298kts
13-Apr-18 23:38 35.756995 -115.581412 26 12671ft 300kts
13-Apr-18 23:39 35.830654 -115.569551 2 12680ft 300kts
13-Apr-18 23:40 35.908192 -115.565679 2 12679ft 300kts
13-Apr-18 23:41 35.974106 -115.537478 49 12430ft 303kts
13-Apr-18 23:42 35.999445 -115.473036 68 11704ft 289kts
13-Apr-18 23:43 36.020140 -115.408065 68 11011ft 275kts
13-Apr-18 23:44 36.029785 -115.341380 94 10270ft 264kts
13-Apr-18 23:45 36.025316 -115.279885 95 9562ft 261kts
13-Apr-18 23:46 36.019859 -115.207631 95 8726ft 256kts
13-Apr-18 23:47 36.014853 -115.136638 94 7963ft 249kts
13-Apr-18 23:48 36.010284 -115.070326 94 6904ft 239kts
13-Apr-18 23:49 36.006306 -115.004511 94 5910ft 248kts
13-Apr-18 23:50 36.002492 -114.941449 94 4973ft 253kts
13-Apr-18 23:51 36.000127 -114.879833 76 4648ft 231kts
13-Apr-18 23:52 36.038214 -114.845427 352 4689ft 225kts
13-Apr-18 23:53 36.072034 -114.880361 281 4693ft 225kts
13-Apr-18 23:54 36.073538 -114.940902 270 4677ft 223kts
13-Apr-18 23:55 36.073602 -114.998911 270 4156ft 219kts
13-Apr-18 23:56 36.073646 -115.052230 270 3316ft 185kts
13-Apr-18 23:57 36.073658 -115.097082 270 2579ft 143kts
13-Apr-18 23:58 36.073662 -115.139140 270 2119ft 128kts
13-Apr-18 23:59 36.075653 -115.156568 315 2119ft 36kts
14-Apr-18 00:00 36.078019 -115.157000 89 2119ft 0kts

Navigation Log

Ident Type
Flight plan parsing failed, navigation log unavailable